sensor_id;sensor_type;location;lat;lon;timestamp;pressure;altitude;pressure_sealevel;temperature;humidity
67397;BME280;57728;50.448;18.824;2024-03-08T00:01:28;98489.25;;;1.64;68.04
67397;BME280;57728;50.448;18.824;2024-03-08T00:03:30;98479.00;;;1.59;68.06
67397;BME280;57728;50.448;18.824;2024-03-08T00:05:31;98474.47;;;1.51;68.12
67397;BME280;57728;50.448;18.824;2024-03-08T00:07:32;98478.63;;;1.54;68.29
67397;BME280;57728;50.448;18.824;2024-03-08T00:09:34;98465.38;;;1.52;68.31
67397;BME280;57728;50.448;18.824;2024-03-08T00:11:35;98470.44;;;1.56;68.56
67397;BME280;57728;50.448;18.824;2024-03-08T00:13:36;98471.28;;;1.56;68.56
67397;BME280;57728;50.448;18.824;2024-03-08T00:15:38;98475.94;;;1.54;68.38
67397;BME280;57728;50.448;18.824;2024-03-08T00:17:40;98468.22;;;1.51;68.62
67397;BME280;57728;50.448;18.824;2024-03-08T00:19:41;98467.56;;;1.49;68.32
67397;BME280;57728;50.448;18.824;2024-03-08T00:21:43;98473.41;;;1.44;68.65
67397;BME280;57728;50.448;18.824;2024-03-08T00:23:45;98469.06;;;1.43;68.57
67397;BME280;57728;50.448;18.824;2024-03-08T00:25:46;98466.69;;;1.40;68.77
67397;BME280;57728;50.448;18.824;2024-03-08T00:27:48;98389.22;;;0.94;68.77
67397;BME280;57728;50.448;18.824;2024-03-08T00:29:50;98431.03;;;1.13;68.98
67397;BME280;57728;50.448;18.824;2024-03-08T00:31:51;98461.63;;;1.29;68.86
67397;BME280;57728;50.448;18.824;2024-03-08T00:33:53;98466.66;;;1.32;68.98
67397;BME280;57728;50.448;18.824;2024-03-08T00:35:54;98476.84;;;1.28;69.00
67397;BME280;57728;50.448;18.824;2024-03-08T00:37:55;98469.81;;;1.27;69.12
67397;BME280;57728;50.448;18.824;2024-03-08T00:39:58;98462.09;;;1.24;69.08
67397;BME280;57728;50.448;18.824;2024-03-08T00:41:59;98467.78;;;1.21;69.21
67397;BME280;57728;50.448;18.824;2024-03-08T00:44:00;98466.06;;;1.20;69.51
67397;BME280;57728;50.448;18.824;2024-03-08T00:46:02;98467.44;;;1.24;69.42
67397;BME280;57728;50.448;18.824;2024-03-08T00:48:03;98462.78;;;1.26;69.31
67397;BME280;57728;50.448;18.824;2024-03-08T00:50:06;98470.28;;;1.23;69.32
67397;BME280;57728;50.448;18.824;2024-03-08T00:52:09;98465.41;;;1.18;69.38
67397;BME280;57728;50.448;18.824;2024-03-08T00:54:11;98464.72;;;1.16;69.60
67397;BME280;57728;50.448;18.824;2024-03-08T00:56:12;98460.53;;;1.13;69.43
67397;BME280;57728;50.448;18.824;2024-03-08T00:58:14;98461.38;;;1.14;69.40
67397;BME280;57728;50.448;18.824;2024-03-08T01:00:16;98454.63;;;1.10;69.71
67397;BME280;57728;50.448;18.824;2024-03-08T01:02:17;98458.03;;;1.12;69.61
67397;BME280;57728;50.448;18.824;2024-03-08T01:04:20;98461.38;;;1.14;69.91
67397;BME280;57728;50.448;18.824;2024-03-08T01:06:23;98452.34;;;1.15;69.89
67397;BME280;57728;50.448;18.824;2024-03-08T01:08:24;98454.69;;;1.18;69.71
67397;BME280;57728;50.448;18.824;2024-03-08T01:10:26;98449.16;;;1.19;69.76
67397;BME280;57728;50.448;18.824;2024-03-08T01:12:28;98444.63;;;1.20;69.67
67397;BME280;57728;50.448;18.824;2024-03-08T01:14:30;98439.59;;;1.17;69.80
67397;BME280;57728;50.448;18.824;2024-03-08T01:16:32;98438.22;;;1.13;69.39
67397;BME280;57728;50.448;18.824;2024-03-08T01:18:34;98431.81;;;1.06;70.04
67397;BME280;57728;50.448;18.824;2024-03-08T01:20:35;98451.97;;;1.10;70.06
67397;BME280;57728;50.448;18.824;2024-03-08T01:22:37;98442.91;;;1.11;69.98
67397;BME280;57728;50.448;18.824;2024-03-08T01:24:38;98437.72;;;1.09;69.93
67397;BME280;57728;50.448;18.824;2024-03-08T01:26:39;98446.59;;;1.10;70.04
67397;BME280;57728;50.448;18.824;2024-03-08T01:28:41;98427.63;;;1.03;70.18
67397;BME280;57728;50.448;18.824;2024-03-08T01:30:42;98430.47;;;1.01;70.17
67397;BME280;57728;50.448;18.824;2024-03-08T01:32:44;98434.28;;;0.99;69.92
67397;BME280;57728;50.448;18.824;2024-03-08T01:34:45;98436.47;;;0.95;70.36
67397;BME280;57728;50.448;18.824;2024-03-08T01:36:47;98430.13;;;0.96;70.47
67397;BME280;57728;50.448;18.824;2024-03-08T01:38:48;98429.41;;;0.94;70.45
67397;BME280;57728;50.448;18.824;2024-03-08T01:40:50;98408.41;;;0.81;70.27
67397;BME280;57728;50.448;18.824;2024-03-08T01:42:52;98424.72;;;0.88;70.44
67397;BME280;57728;50.448;18.824;2024-03-08T01:44:53;98424.00;;;0.86;70.61
67397;BME280;57728;50.448;18.824;2024-03-08T01:46:56;98425.66;;;0.79;70.54
67397;BME280;57728;50.448;18.824;2024-03-08T01:48:57;98429.03;;;0.81;70.75
67397;BME280;57728;50.448;18.824;2024-03-08T01:51:01;98419.09;;;0.73;70.56
67397;BME280;57728;50.448;18.824;2024-03-08T01:53:05;98419.41;;;0.70;70.84
67397;BME280;57728;50.448;18.824;2024-03-08T01:55:08;98424.59;;;0.72;71.02
67397;BME280;57728;50.448;18.824;2024-03-08T01:57:10;98417.88;;;0.67;70.83
67397;BME280;57728;50.448;18.824;2024-03-08T01:59:13;98416.06;;;0.68;71.30
67397;BME280;57728;50.448;18.824;2024-03-08T02:01:15;98423.25;;;0.67;71.24
67397;BME280;57728;50.448;18.824;2024-03-08T02:03:17;98416.06;;;0.68;71.36
67397;BME280;57728;50.448;18.824;2024-03-08T02:05:19;98405.13;;;0.61;71.27
67397;BME280;57728;50.448;18.824;2024-03-08T02:07:21;98415.34;;;0.66;71.26
67397;BME280;57728;50.448;18.824;2024-03-08T02:09:23;98410.69;;;0.68;71.48
67397;BME280;57728;50.448;18.824;2024-03-08T02:11:26;98400.59;;;0.62;71.46
67397;BME280;57728;50.448;18.824;2024-03-08T02:13:30;98412.69;;;0.66;71.37
67397;BME280;57728;50.448;18.824;2024-03-08T02:17:52;98351.47;;;0.27;71.32
67397;BME280;57728;50.448;18.824;2024-03-08T02:19:54;98416.84;;;0.60;71.28
67397;BME280;57728;50.448;18.824;2024-03-08T02:21:56;98403.91;;;0.56;71.55
67397;BME280;57728;50.448;18.824;2024-03-08T02:23:59;98394.34;;;0.53;71.74
67397;BME280;57728;50.448;18.824;2024-03-08T02:26:00;98404.41;;;0.59;71.64
67397;BME280;57728;50.448;18.824;2024-03-08T02:28:01;98401.06;;;0.57;71.47
67397;BME280;57728;50.448;18.824;2024-03-08T02:30:04;98407.06;;;0.51;71.36
67397;BME280;57728;50.448;18.824;2024-03-08T02:32:06;98401.41;;;0.54;71.79
67397;BME280;57728;50.448;18.824;2024-03-08T02:34:07;98396.03;;;0.54;71.97
67397;BME280;57728;50.448;18.824;2024-03-08T02:36:09;98396.03;;;0.54;71.85
67397;BME280;57728;50.448;18.824;2024-03-08T02:38:10;98401.41;;;0.54;71.92
67397;BME280;57728;50.448;18.824;2024-03-08T02:40:11;98394.19;;;0.55;71.84
67397;BME280;57728;50.448;18.824;2024-03-08T02:42:14;98391.66;;;0.53;71.83
67397;BME280;57728;50.448;18.824;2024-03-08T02:44:15;98398.00;;;0.52;71.92
67397;BME280;57728;50.448;18.824;2024-03-08T02:46:16;98392.97;;;0.49;71.92
67397;BME280;57728;50.448;18.824;2024-03-08T02:48:18;98388.44;;;0.49;71.94
67397;BME280;57728;50.448;18.824;2024-03-08T02:50:19;98389.47;;;0.48;72.00
67397;BME280;57728;50.448;18.824;2024-03-08T02:52:20;98392.16;;;0.48;72.09
67397;BME280;57728;50.448;18.824;2024-03-08T02:54:22;98392.97;;;0.49;72.19
67397;BME280;57728;50.448;18.824;2024-03-08T02:56:24;98393.97;;;0.48;71.87
67397;BME280;57728;50.448;18.824;2024-03-08T02:58:25;98392.31;;;0.47;72.17
67397;BME280;57728;50.448;18.824;2024-03-08T03:00:27;98385.25;;;0.46;72.21
67397;BME280;57728;50.448;18.824;2024-03-08T03:02:28;98376.69;;;0.42;71.92
67397;BME280;57728;50.448;18.824;2024-03-08T03:04:29;98390.25;;;0.41;71.98
67397;BME280;57728;50.448;18.824;2024-03-08T03:06:34;98389.19;;;0.33;72.00
67397;BME280;57728;50.448;18.824;2024-03-08T03:08:36;98387.66;;;0.31;72.28
67397;BME280;57728;50.448;18.824;2024-03-08T03:10:37;98391.03;;;0.33;72.39
67397;BME280;57728;50.448;18.824;2024-03-08T03:12:39;98397.06;;;0.35;72.60
67397;BME280;57728;50.448;18.824;2024-03-08T03:14:40;98400.44;;;0.37;72.33
67397;BME280;57728;50.448;18.824;2024-03-08T03:16:41;98393.41;;;0.36;72.39
67397;BME280;57728;50.448;18.824;2024-03-08T03:18:46;98391.38;;;0.38;72.30
67397;BME280;57728;50.448;18.824;2024-03-08T03:20:47;98387.38;;;0.34;72.23
67397;BME280;57728;50.448;18.824;2024-03-08T03:22:49;98386.34;;;0.35;72.39
67397;BME280;57728;50.448;18.824;2024-03-08T03:24:54;98385.53;;;0.34;72.36
67397;BME280;57728;50.448;18.824;2024-03-08T03:26:55;98387.81;;;0.29;72.45
67397;BME280;57728;50.448;18.824;2024-03-08T03:28:56;98393.88;;;0.31;72.41
67397;BME280;57728;50.448;18.824;2024-03-08T03:30:59;98387.66;;;0.31;72.52
67397;BME280;57728;50.448;18.824;2024-03-08T03:33:01;98385.31;;;0.28;72.28
67397;BME280;57728;50.448;18.824;2024-03-08T03:35:07;98381.94;;;0.26;72.46
67397;BME280;57728;50.448;18.824;2024-03-08T03:37:09;98384.94;;;0.23;72.43
67397;BME280;57728;50.448;18.824;2024-03-08T03:39:13;98381.72;;;0.19;72.58
67397;BME280;57728;50.448;18.824;2024-03-08T03:41:16;98386.09;;;0.20;72.49
67397;BME280;57728;50.448;18.824;2024-03-08T03:43:19;98390.44;;;0.21;72.67
67397;BME280;57728;50.448;18.824;2024-03-08T03:45:20;98376.75;;;0.24;72.77
67397;BME280;57728;50.448;18.824;2024-03-08T03:47:21;98378.72;;;0.22;72.59
67397;BME280;57728;50.448;18.824;2024-03-08T03:49:23;98376.44;;;0.27;72.72
67397;BME280;57728;50.448;18.824;2024-03-08T03:51:25;98378.72;;;0.22;72.52
67397;BME280;57728;50.448;18.824;2024-03-08T03:53:26;98379.13;;;0.27;72.69
67397;BME280;57728;50.448;18.824;2024-03-08T03:55:28;98378.41;;;0.25;72.42
67397;BME280;57728;50.448;18.824;2024-03-08T03:57:30;98374.09;;;0.24;72.64
67397;BME280;57728;50.448;18.824;2024-03-08T03:59:31;98365.00;;;0.17;72.67
67397;BME280;57728;50.448;18.824;2024-03-08T04:01:33;98373.75;;;0.27;72.60
67397;BME280;57728;50.448;18.824;2024-03-08T04:03:35;98370.09;;;0.28;72.58
67397;BME280;57728;50.448;18.824;2024-03-08T04:05:37;98367.69;;;0.25;72.59
67397;BME280;57728;50.448;18.824;2024-03-08T04:07:39;98361.69;;;0.23;72.60
67397;BME280;57728;50.448;18.824;2024-03-08T04:09:40;98370.38;;;0.25;72.27
67397;BME280;57728;50.448;18.824;2024-03-08T04:11:41;98369.38;;;0.26;72.47
67397;BME280;57728;50.448;18.824;2024-03-08T04:13:43;98372.22;;;0.25;72.47
67397;BME280;57728;50.448;18.824;2024-03-08T04:15:44;98367.53;;;0.27;72.60
67397;BME280;57728;50.448;18.824;2024-03-08T04:17:45;98370.09;;;0.28;72.67
67397;BME280;57728;50.448;18.824;2024-03-08T04:19:47;98355.34;;;0.24;72.38
67397;BME280;57728;50.448;18.824;2024-03-08T04:21:49;98367.41;;;0.28;72.56
67397;BME280;57728;50.448;18.824;2024-03-08T04:23:50;98358.00;;;0.24;72.43
67397;BME280;57728;50.448;18.824;2024-03-08T04:25:52;98368.72;;;0.24;72.45
67397;BME280;57728;50.448;18.824;2024-03-08T04:27:53;98367.88;;;0.24;72.27
67397;BME280;57728;50.448;18.824;2024-03-08T04:29:54;98369.88;;;0.22;72.37
67397;BME280;57728;50.448;18.824;2024-03-08T04:31:56;98371.69;;;0.21;72.52
67397;BME280;57728;50.448;18.824;2024-03-08T04:33:57;98374.09;;;0.24;72.61
67397;BME280;57728;50.448;18.824;2024-03-08T04:35:58;98379.13;;;0.27;72.45
67397;BME280;57728;50.448;18.824;2024-03-08T04:38:00;98357.78;;;0.17;72.34
67397;BME280;57728;50.448;18.824;2024-03-08T04:40:01;98372.38;;;0.23;72.29
67397;BME280;57728;50.448;18.824;2024-03-08T04:42:02;98359.94;;;0.14;72.44
67397;BME280;57728;50.448;18.824;2024-03-08T04:44:08;98383.09;;;0.23;72.42
67397;BME280;57728;50.448;18.824;2024-03-08T04:46:09;98375.53;;;0.19;72.26
67397;BME280;57728;50.448;18.824;2024-03-08T04:48:10;98378.06;;;0.20;72.64
67397;BME280;57728;50.448;18.824;2024-03-08T04:50:13;98370.69;;;0.22;72.51
67397;BME280;57728;50.448;18.824;2024-03-08T04:52:14;98378.56;;;0.24;72.39
67397;BME280;57728;50.448;18.824;2024-03-08T04:54:15;98377.75;;;0.23;72.43
67397;BME280;57728;50.448;18.824;2024-03-08T04:56:17;98375.06;;;0.23;72.35
67397;BME280;57728;50.448;18.824;2024-03-08T04:58:20;98365.97;;;0.16;72.30
67397;BME280;57728;50.448;18.824;2024-03-08T05:00:21;98378.91;;;0.21;72.19
67397;BME280;57728;50.448;18.824;2024-03-08T05:02:23;98382.72;;;0.18;72.40
67397;BME280;57728;50.448;18.824;2024-03-08T05:04:24;98388.22;;;0.16;72.41
67397;BME280;57728;50.448;18.824;2024-03-08T05:06:25;98387.41;;;0.16;72.40
67397;BME280;57728;50.448;18.824;2024-03-08T05:08:27;98379.69;;;0.13;72.39
67397;BME280;57728;50.448;18.824;2024-03-08T05:10:28;98373.63;;;0.11;72.38
67397;BME280;57728;50.448;18.824;2024-03-08T05:12:29;98378.31;;;0.09;72.52
67397;BME280;57728;50.448;18.824;2024-03-08T05:14:31;98385.41;;;0.18;72.59
67397;BME280;57728;50.448;18.824;2024-03-08T05:16:32;98384.88;;;0.14;72.37
67397;BME280;57728;50.448;18.824;2024-03-08T05:18:34;98380.69;;;0.12;72.58
67397;BME280;57728;50.448;18.824;2024-03-08T05:20:37;98378.66;;;0.14;72.79
67397;BME280;57728;50.448;18.824;2024-03-08T05:22:40;98376.16;;;0.12;72.51
67397;BME280;57728;50.448;18.824;2024-03-08T05:24:41;98383.03;;;0.15;72.68
67397;BME280;57728;50.448;18.824;2024-03-08T05:26:45;98383.03;;;0.15;72.60
67397;BME280;57728;50.448;18.824;2024-03-08T05:28:46;98374.34;;;0.13;72.78
67397;BME280;57728;50.448;18.824;2024-03-08T05:30:47;98379.38;;;0.16;72.54
67397;BME280;57728;50.448;18.824;2024-03-08T05:32:49;98372.16;;;0.16;72.62
67397;BME280;57728;50.448;18.824;2024-03-08T05:34:50;98380.41;;;0.23;72.68
67397;BME280;57728;50.448;18.824;2024-03-08T05:36:52;98319.53;;;-0.19;72.46
67397;BME280;57728;50.448;18.824;2024-03-08T05:38:56;98388.63;;;0.22;72.79
67397;BME280;57728;50.448;18.824;2024-03-08T05:40:57;98392.81;;;0.24;72.73
67397;BME280;57728;50.448;18.824;2024-03-08T05:42:58;98386.09;;;0.20;72.73
67397;BME280;57728;50.448;18.824;2024-03-08T05:45:01;98390.50;;;0.29;72.85
67397;BME280;57728;50.448;18.824;2024-03-08T05:47:02;98392.56;;;0.36;72.89
67397;BME280;57728;50.448;18.824;2024-03-08T05:49:04;98390.25;;;0.41;72.76
67397;BME280;57728;50.448;18.824;2024-03-08T05:51:07;98379.03;;;0.37;72.52
67397;BME280;57728;50.448;18.824;2024-03-08T05:53:08;98385.94;;;0.48;72.69
67397;BME280;57728;50.448;18.824;2024-03-08T05:55:09;98400.69;;;0.52;72.53
67397;BME280;57728;50.448;18.824;2024-03-08T05:57:11;98396.19;;;0.53;72.34
67397;BME280;57728;50.448;18.824;2024-03-08T05:59:12;98399.38;;;0.56;72.54
67397;BME280;57728;50.448;18.824;2024-03-08T06:01:14;98397.09;;;0.61;72.21
67397;BME280;57728;50.448;18.824;2024-03-08T06:03:17;98327.53;;;0.25;72.42
67397;BME280;57728;50.448;18.824;2024-03-08T06:05:20;98403.16;;;0.72;72.30
67397;BME280;57728;50.448;18.824;2024-03-08T06:07:24;98340.94;;;0.51;72.49
67397;BME280;57728;50.448;18.824;2024-03-08T06:09:25;98382.16;;;0.85;72.43
67397;BME280;57728;50.448;18.824;2024-03-08T06:11:27;98395.09;;;0.98;72.42
67397;BME280;57728;50.448;18.824;2024-03-08T06:13:29;98389.25;;;1.02;71.88
67397;BME280;57728;50.448;18.824;2024-03-08T06:15:32;98393.28;;;1.07;71.98
67397;BME280;57728;50.448;18.824;2024-03-08T06:17:36;98396.63;;;1.09;71.80
67397;BME280;57728;50.448;18.824;2024-03-08T06:19:37;98391.97;;;1.11;71.70
67397;BME280;57728;50.448;18.824;2024-03-08T06:21:39;98392.63;;;1.13;71.66
67397;BME280;57728;50.448;18.824;2024-03-08T06:23:40;98379.22;;;1.13;71.73
67397;BME280;57728;50.448;18.824;2024-03-08T06:25:44;98389.97;;;1.21;71.70
67397;BME280;57728;50.448;18.824;2024-03-08T06:27:47;98387.66;;;1.26;71.71
67397;BME280;57728;50.448;18.824;2024-03-08T06:29:48;98390.84;;;1.30;71.59
67397;BME280;57728;50.448;18.824;2024-03-08T06:31:50;98392.91;;;1.36;71.32
67397;BME280;57728;50.448;18.824;2024-03-08T06:33:52;98390.53;;;1.41;71.42
67397;BME280;57728;50.448;18.824;2024-03-08T06:35:55;98386.91;;;1.50;71.19
67397;BME280;57728;50.448;18.824;2024-03-08T06:37:59;98386.22;;;1.57;71.05
67397;BME280;57728;50.448;18.824;2024-03-08T06:40:01;98376.66;;;1.54;70.97
67397;BME280;57728;50.448;18.824;2024-03-08T06:42:08;98386.06;;;1.66;70.89
67397;BME280;57728;50.448;18.824;2024-03-08T06:44:11;98383.75;;;1.71;70.84
67397;BME280;57728;50.448;18.824;2024-03-08T06:46:15;98385.59;;;1.79;70.78
67397;BME280;57728;50.448;18.824;2024-03-08T06:48:19;98393.81;;;1.86;70.53
67397;BME280;57728;50.448;18.824;2024-03-08T06:50:20;98387.28;;;1.88;70.58
67397;BME280;57728;50.448;18.824;2024-03-08T06:52:22;98384.94;;;2.02;70.37
67397;BME280;57728;50.448;18.824;2024-03-08T06:54:23;98390.13;;;2.12;70.25
67397;BME280;57728;50.448;18.824;2024-03-08T06:56:25;98387.47;;;2.20;70.20
67397;BME280;57728;50.448;18.824;2024-03-08T06:58:27;98391.16;;;2.27;69.99
67397;BME280;57728;50.448;18.824;2024-03-08T07:00:28;98386.47;;;2.29;69.43
67397;BME280;57728;50.448;18.824;2024-03-08T07:02:31;98380.06;;;2.30;69.60
67397;BME280;57728;50.448;18.824;2024-03-08T07:04:34;98381.75;;;2.39;69.56
67397;BME280;57728;50.448;18.824;2024-03-08T07:06:39;98385.09;;;2.41;69.28
67397;BME280;57728;50.448;18.824;2024-03-08T07:08:42;98378.06;;;2.40;68.94
67397;BME280;57728;50.448;18.824;2024-03-08T07:10:44;98379.22;;;2.46;69.32
67397;BME280;57728;50.448;18.824;2024-03-08T07:12:45;98386.25;;;2.55;69.37
67397;BME280;57728;50.448;18.824;2024-03-08T07:14:47;98384.38;;;2.64;69.22
67397;BME280;57728;50.448;18.824;2024-03-08T07:16:50;98371.44;;;2.60;68.62
67397;BME280;57728;50.448;18.824;2024-03-08T07:18:51;98372.97;;;2.62;68.19
67397;BME280;57728;50.448;18.824;2024-03-08T07:20:53;98381.72;;;2.56;68.20
67397;BME280;57728;50.448;18.824;2024-03-08T07:22:55;98378.69;;;2.51;68.12
67397;BME280;57728;50.448;18.824;2024-03-08T07:24:56;98372.69;;;2.40;67.86
67397;BME280;57728;50.448;18.824;2024-03-08T07:27:17;98368.81;;;2.27;67.79
67397;BME280;57728;50.448;18.824;2024-03-08T07:29:19;98372.69;;;2.24;67.82
67397;BME280;57728;50.448;18.824;2024-03-08T07:31:20;98382.91;;;2.20;67.83
67397;BME280;57728;50.448;18.824;2024-03-08T07:33:27;98392.66;;;2.21;68.18
67397;BME280;57728;50.448;18.824;2024-03-08T07:35:29;98383.94;;;2.19;67.57
67397;BME280;57728;50.448;18.824;2024-03-08T07:37:31;98381.44;;;2.18;67.64
67397;BME280;57728;50.448;18.824;2024-03-08T07:39:32;98381.25;;;2.19;67.87
67397;BME280;57728;50.448;18.824;2024-03-08T07:41:34;98387.47;;;2.20;68.00
67397;BME280;57728;50.448;18.824;2024-03-08T07:43:37;98380.06;;;2.22;67.94
67397;BME280;57728;50.448;18.824;2024-03-08T07:45:38;98370.00;;;2.08;67.80
67397;BME280;57728;50.448;18.824;2024-03-08T07:47:40;98388.47;;;2.27;67.96
67397;BME280;57728;50.448;18.824;2024-03-08T07:49:41;98386.13;;;2.32;67.89
67397;BME280;57728;50.448;18.824;2024-03-08T07:51:42;98381.22;;;2.36;67.90
67397;BME280;57728;50.448;18.824;2024-03-08T07:53:44;98391.81;;;2.46;68.03
67397;BME280;57728;50.448;18.824;2024-03-08T07:55:45;98396.50;;;2.52;67.83
67397;BME280;57728;50.448;18.824;2024-03-08T07:57:46;98394.47;;;2.54;67.63
67397;BME280;57728;50.448;18.824;2024-03-08T07:59:49;98401.19;;;2.50;67.04
67397;BME280;57728;50.448;18.824;2024-03-08T08:01:50;98399.50;;;2.49;67.20
67397;BME280;57728;50.448;18.824;2024-03-08T08:03:51;98395.81;;;2.50;67.19
67397;BME280;57728;50.448;18.824;2024-03-08T08:05:53;98397.84;;;2.56;67.49
67397;BME280;57728;50.448;18.824;2024-03-08T08:07:54;98371.16;;;2.46;67.19
67397;BME280;57728;50.448;18.824;2024-03-08T08:09:55;98372.81;;;2.47;67.11
67397;BME280;57728;50.448;18.824;2024-03-08T08:12:00;98375.66;;;2.46;66.80
67397;BME280;57728;50.448;18.824;2024-03-08T08:14:03;98403.38;;;2.63;67.13
67397;BME280;57728;50.448;18.824;2024-03-08T08:16:10;98392.44;;;2.64;67.29
67397;BME280;57728;50.448;18.824;2024-03-08T08:18:12;98398.16;;;2.69;67.22
67397;BME280;57728;50.448;18.824;2024-03-08T08:20:14;98395.78;;;2.74;67.10
67397;BME280;57728;50.448;18.824;2024-03-08T08:22:15;98402.66;;;2.77;67.27
67397;BME280;57728;50.448;18.824;2024-03-08T08:24:19;98404.16;;;2.80;67.15
67397;BME280;57728;50.448;18.824;2024-03-08T08:26:22;98388.03;;;2.80;67.18
67397;BME280;57728;50.448;18.824;2024-03-08T08:28:27;98397.94;;;2.87;67.04
67397;BME280;57728;50.448;18.824;2024-03-08T08:30:28;98398.41;;;2.91;66.84
67397;BME280;57728;50.448;18.824;2024-03-08T08:32:30;98394.06;;;2.90;66.46
67397;BME280;57728;50.448;18.824;2024-03-08T08:34:31;98394.41;;;2.87;66.16
67397;BME280;57728;50.448;18.824;2024-03-08T08:36:32;98399.78;;;2.87;66.37
67397;BME280;57728;50.448;18.824;2024-03-08T08:38:34;98383.34;;;2.73;65.83
67397;BME280;57728;50.448;18.824;2024-03-08T08:40:36;98376.78;;;2.76;66.47
67397;BME280;57728;50.448;18.824;2024-03-08T08:42:38;98394.06;;;2.90;66.10
67397;BME280;57728;50.448;18.824;2024-03-08T08:44:39;98386.66;;;2.92;66.12
67397;BME280;57728;50.448;18.824;2024-03-08T08:46:41;98389.00;;;2.95;65.71
67397;BME280;57728;50.448;18.824;2024-03-08T08:48:43;98386.31;;;2.95;65.56
67397;BME280;57728;50.448;18.824;2024-03-08T08:50:45;98385.66;;;2.93;65.42
67397;BME280;57728;50.448;18.824;2024-03-08T08:52:47;98385.13;;;2.98;65.20
67397;BME280;57728;50.448;18.824;2024-03-08T08:54:49;98386.81;;;2.99;65.18
67397;BME280;57728;50.448;18.824;2024-03-08T08:56:52;98384.31;;;2.97;64.92
67397;BME280;57728;50.448;18.824;2024-03-08T08:58:54;98369.00;;;2.89;64.98
67397;BME280;57728;50.448;18.824;2024-03-08T09:00:56;98342.84;;;2.75;64.77
67397;BME280;57728;50.448;18.824;2024-03-08T09:02:57;98387.78;;;3.06;65.13
67397;BME280;57728;50.448;18.824;2024-03-08T09:04:58;98386.59;;;3.17;65.25
67397;BME280;57728;50.448;18.824;2024-03-08T09:07:00;98375.72;;;3.33;64.91
67397;BME280;57728;50.448;18.824;2024-03-08T09:09:02;98378.28;;;3.58;65.59
67397;BME280;57728;50.448;18.824;2024-03-08T09:11:05;98392.59;;;4.28;65.95
67397;BME280;57728;50.448;18.824;2024-03-08T09:13:07;98375.75;;;5.24;64.80
67397;BME280;57728;50.448;18.824;2024-03-08T09:15:10;98382.13;;;6.32;63.35
67397;BME280;57728;50.448;18.824;2024-03-08T09:17:11;98375.69;;;7.32;61.47
67397;BME280;57728;50.448;18.824;2024-03-08T09:19:13;98369.06;;;8.30;59.39
67397;BME280;57728;50.448;18.824;2024-03-08T09:21:15;98365.25;;;9.11;57.30
67397;BME280;57728;50.448;18.824;2024-03-08T09:23:21;98356.38;;;9.81;55.38
67397;BME280;57728;50.448;18.824;2024-03-08T09:25:22;98354.50;;;10.45;53.87
67397;BME280;57728;50.448;18.824;2024-03-08T09:27:24;98362.84;;;10.94;52.09
67397;BME280;57728;50.448;18.824;2024-03-08T09:29:25;98334.84;;;11.43;51.25
67397;BME280;57728;50.448;18.824;2024-03-08T09:31:27;98348.09;;;11.88;49.07
67397;BME280;57728;50.448;18.824;2024-03-08T09:33:29;98343.50;;;12.31;49.43
67397;BME280;57728;50.448;18.824;2024-03-08T09:35:30;98344.59;;;12.89;47.89
67397;BME280;57728;50.448;18.824;2024-03-08T09:37:31;98339.00;;;13.19;45.33
67397;BME280;57728;50.448;18.824;2024-03-08T09:39:33;98336.50;;;13.18;43.88
67397;BME280;57728;50.448;18.824;2024-03-08T09:41:34;98340.28;;;13.40;44.97
67397;BME280;57728;50.448;18.824;2024-03-08T09:43:35;98345.03;;;13.45;43.63
67397;BME280;57728;50.448;18.824;2024-03-08T09:45:37;98342.22;;;13.69;44.07
67397;BME280;57728;50.448;18.824;2024-03-08T09:47:43;98336.53;;;14.16;42.96
67397;BME280;57728;50.448;18.824;2024-03-08T09:49:45;98328.97;;;14.40;42.32
67397;BME280;57728;50.448;18.824;2024-03-08T09:51:47;98336.50;;;14.79;41.38
67397;BME280;57728;50.448;18.824;2024-03-08T09:53:52;98326.09;;;14.81;40.26
67397;BME280;57728;50.448;18.824;2024-03-08T09:55:54;98329.75;;;14.70;40.27
67397;BME280;57728;50.448;18.824;2024-03-08T09:57:58;98338.97;;;14.47;39.10
67397;BME280;57728;50.448;18.824;2024-03-08T10:00:21;98336.03;;;14.36;40.05
67397;BME280;57728;50.448;18.824;2024-03-08T10:02:24;98330.25;;;14.84;40.00
67397;BME280;57728;50.448;18.824;2024-03-08T10:04:27;98328.97;;;15.30;39.20
67397;BME280;57728;50.448;18.824;2024-03-08T10:06:31;98333.47;;;15.81;38.83
67397;BME280;57728;50.448;18.824;2024-03-08T10:08:32;98325.28;;;16.13;37.79
67397;BME280;57728;50.448;18.824;2024-03-08T10:10:34;98330.72;;;16.41;36.20
67397;BME280;57728;50.448;18.824;2024-03-08T10:12:36;98315.59;;;16.38;35.81
67397;BME280;57728;50.448;18.824;2024-03-08T10:14:39;98331.81;;;16.72;36.03
67397;BME280;57728;50.448;18.824;2024-03-08T10:16:42;98323.88;;;17.18;35.93
67397;BME280;57728;50.448;18.824;2024-03-08T10:18:47;98320.81;;;17.78;35.43
67397;BME280;57728;50.448;18.824;2024-03-08T10:21:02;98318.94;;;17.89;33.15
67397;BME280;57728;50.448;18.824;2024-03-08T10:23:09;98317.09;;;18.15;33.55
67397;BME280;57728;50.448;18.824;2024-03-08T10:25:11;98315.44;;;18.30;33.05
67397;BME280;57728;50.448;18.824;2024-03-08T10:27:12;98323.69;;;18.66;32.94
67397;BME280;57728;50.448;18.824;2024-03-08T10:29:14;98319.81;;;18.77;31.82
67397;BME280;57728;50.448;18.824;2024-03-08T10:31:19;98320.41;;;18.59;31.10
67397;BME280;57728;50.448;18.824;2024-03-08T10:33:21;98323.16;;;18.59;31.38
67397;BME280;57728;50.448;18.824;2024-03-08T10:35:22;98325.34;;;18.36;30.90
67397;BME280;57728;50.448;18.824;2024-03-08T10:37:25;98323.13;;;18.28;30.53
67397;BME280;57728;50.448;18.824;2024-03-08T10:39:35;98333.28;;;17.96;30.48
67397;BME280;57728;50.448;18.824;2024-03-08T10:41:42;98324.63;;;17.67;30.95
67397;BME280;57728;50.448;18.824;2024-03-08T10:48:43;98318.16;;;18.04;29.99
67397;BME280;57728;50.448;18.824;2024-03-08T10:50:46;98313.66;;;17.77;30.11
67397;BME280;57728;50.448;18.824;2024-03-08T10:52:52;98299.94;;;17.93;30.95
67397;BME280;57728;50.448;18.824;2024-03-08T10:54:56;98315.72;;;18.49;30.39